createdAt,value
2018-09-04T00:01:29.689Z,18.40
2018-09-04T00:06:33.154Z,18.30
2018-09-04T00:11:36.714Z,18.20
2018-09-04T00:16:40.078Z,18.10
2018-09-04T00:21:43.704Z,18.10
2018-09-04T00:26:47.101Z,18.20
2018-09-04T00:31:50.535Z,18.10
2018-09-04T00:36:53.876Z,17.90
2018-09-04T00:41:57.490Z,17.80
2018-09-04T00:47:01.024Z,17.80
2018-09-04T00:52:04.591Z,17.80
2018-09-04T00:57:08.732Z,17.70
2018-09-04T01:02:12.093Z,17.70
2018-09-04T01:07:16.478Z,17.70
2018-09-04T01:12:20.034Z,17.70
2018-09-04T01:17:23.817Z,17.60
2018-09-04T01:22:27.294Z,17.50
2018-09-04T01:27:30.692Z,17.50
2018-09-04T01:32:34.586Z,17.60
2018-09-04T01:37:37.952Z,17.50
2018-09-04T01:42:41.347Z,17.60
2018-09-04T01:47:44.890Z,17.50
2018-09-04T01:52:48.252Z,17.50
2018-09-04T01:57:51.927Z,17.60
2018-09-04T02:02:55.315Z,17.50
2018-09-04T02:07:59.031Z,17.40
2018-09-04T02:13:02.466Z,17.30
2018-09-04T02:18:06.406Z,17.40
2018-09-04T02:23:09.761Z,17.40
2018-09-04T02:28:13.216Z,17.20
2018-09-04T02:33:16.818Z,17.20
2018-09-04T02:38:20.261Z,17.30
2018-09-04T02:43:23.667Z,17.20
2018-09-04T02:48:27.328Z,17.10
2018-09-04T02:53:30.684Z,17.10
2018-09-04T02:58:34.232Z,17.00
2018-09-04T03:03:37.964Z,17.10
2018-09-04T03:08:41.590Z,17.20
2018-09-04T03:13:45.162Z,17.20
2018-09-04T03:18:48.583Z,17.20
2018-09-04T03:23:52.118Z,17.30
2018-09-04T03:28:55.604Z,17.30
2018-09-04T03:33:59.050Z,17.10
2018-09-04T03:44:14.310Z,17.40
2018-09-04T03:49:17.054Z,17.60
2018-09-04T03:54:19.817Z,17.50
2018-09-04T03:59:22.582Z,17.50
2018-09-04T04:04:25.387Z,17.50
2018-09-04T04:09:28.215Z,17.40
2018-09-04T04:14:30.990Z,17.40
2018-09-04T04:19:33.742Z,17.40
2018-09-04T04:24:36.609Z,17.50
2018-09-04T04:29:40.404Z,17.60
2018-09-04T04:34:43.475Z,17.70
2018-09-04T04:39:47.109Z,17.80
2018-09-04T04:44:49.876Z,17.70
2018-09-04T04:49:52.984Z,17.80
2018-09-04T04:54:55.869Z,17.80
2018-09-04T04:59:58.727Z,17.70
2018-09-04T05:05:01.545Z,17.70
2018-09-04T05:10:05.377Z,17.80
2018-09-04T05:15:08.383Z,17.80
2018-09-04T05:20:14.226Z,17.80
2018-09-04T05:25:17.002Z,17.80
2018-09-04T05:30:19.868Z,17.90
2018-09-04T05:35:22.837Z,17.90
2018-09-04T05:40:25.767Z,17.80
2018-09-04T05:45:29.960Z,18.00
2018-09-04T05:50:32.840Z,17.90
2018-09-04T05:55:35.715Z,18.10
2018-09-04T06:00:47.444Z,18.00
2018-09-04T06:05:50.457Z,17.80
2018-09-04T06:10:53.364Z,17.80
2018-09-04T06:16:00.627Z,17.90
2018-09-04T06:21:03.588Z,18.00
2018-09-04T06:26:06.555Z,17.90
2018-09-04T06:31:09.357Z,18.10
2018-09-04T06:36:12.722Z,18.30
2018-09-04T06:41:15.501Z,18.10
2018-09-04T06:46:18.334Z,18.10
2018-09-04T06:51:21.304Z,18.20
2018-09-04T06:56:24.256Z,18.20
2018-09-04T07:01:26.996Z,18.10
2018-09-04T07:06:29.783Z,18.30
2018-09-04T07:11:32.715Z,18.00
2018-09-04T07:16:35.874Z,17.90
2018-09-04T07:21:38.702Z,18.00
2018-09-04T07:26:43.104Z,18.20
2018-09-04T07:31:45.962Z,18.20
2018-09-04T07:36:48.945Z,18.20
2018-09-04T07:41:51.866Z,18.30
2018-09-04T07:46:54.655Z,18.30
2018-09-04T07:51:57.772Z,18.40
2018-09-04T07:57:00.602Z,18.50
2018-09-04T08:02:03.378Z,18.70
2018-09-04T08:07:06.310Z,18.70
2018-09-04T08:12:09.201Z,18.60
2018-09-04T08:17:12.016Z,18.80
2018-09-04T08:22:14.955Z,18.90
2018-09-04T08:27:17.786Z,18.90
2018-09-04T08:32:20.537Z,19.00
2018-09-04T08:37:23.459Z,19.10
2018-09-04T08:42:26.455Z,19.80
2018-09-04T08:47:29.411Z,20.50
2018-09-04T08:52:32.267Z,20.80
2018-09-04T08:57:35.298Z,21.00
2018-09-04T09:02:38.062Z,21.20
2018-09-04T09:07:40.857Z,21.30
2018-09-04T09:12:43.864Z,21.50
2018-09-04T09:17:46.703Z,21.50
2018-09-04T09:22:49.582Z,21.50
2018-09-04T09:27:52.607Z,20.90
2018-09-04T09:32:55.739Z,20.90
2018-09-04T09:37:58.579Z,20.90
2018-09-04T09:43:01.632Z,21.10
2018-09-04T09:48:04.684Z,21.30
2018-09-04T09:53:07.535Z,21.30
2018-09-04T09:58:10.231Z,21.50
2018-09-04T10:03:18.827Z,21.70
2018-09-04T10:08:21.908Z,22.00
2018-09-04T10:13:24.684Z,22.20
2018-09-04T10:18:28.065Z,22.40
2018-09-04T10:23:31.389Z,22.30
2018-09-04T10:28:34.382Z,22.10
2018-09-04T10:33:37.254Z,21.90
2018-09-04T10:38:40.474Z,22.10
2018-09-04T10:43:43.445Z,22.20
2018-09-04T10:48:46.585Z,22.40
2018-09-04T10:53:49.671Z,22.60
2018-09-04T10:58:52.764Z,22.90
2018-09-04T11:03:56.330Z,23.10
2018-09-04T11:09:00.844Z,23.30
2018-09-04T11:14:03.809Z,23.10
2018-09-04T11:19:07.014Z,23.30
2018-09-04T11:24:09.896Z,23.50
2018-09-04T11:29:13.584Z,23.60
2018-09-04T11:34:16.660Z,23.60
2018-09-04T11:39:19.500Z,23.70
2018-09-04T11:44:23.492Z,23.90
2018-09-04T11:49:26.288Z,24.20
2018-09-04T11:54:30.803Z,23.90
2018-09-04T11:59:37.396Z,23.70
2018-09-04T12:04:40.473Z,23.90
2018-09-04T12:09:43.568Z,24.10
2018-09-04T12:14:47.025Z,24.20
2018-09-04T12:20:46.839Z,24.40
2018-09-04T12:25:52.618Z,24.40
2018-09-04T12:30:56.850Z,24.60
2018-09-04T12:36:00.500Z,24.40
2018-09-04T12:41:06.512Z,24.50
2018-09-04T12:46:09.869Z,24.50
2018-09-04T12:51:13.507Z,24.60
2018-09-04T12:56:17.104Z,24.80
2018-09-04T13:01:20.465Z,25.00
2018-09-04T13:06:24.261Z,25.00
2018-09-04T13:11:27.773Z,24.70
2018-09-04T13:16:31.394Z,25.00
2018-09-04T13:21:34.922Z,25.00
2018-09-04T13:26:38.354Z,25.00
2018-09-04T13:31:41.915Z,24.90
2018-09-04T13:36:47.609Z,24.90
2018-09-04T13:41:51.294Z,24.90
2018-09-04T13:46:54.934Z,24.90
2018-09-04T13:51:59.752Z,24.80
2018-09-04T13:57:04.446Z,24.70
2018-09-04T14:02:08.128Z,24.60
2018-09-04T14:07:11.839Z,24.60
2018-09-04T14:12:15.174Z,24.70
2018-09-04T14:17:20.132Z,24.80
2018-09-04T14:22:23.543Z,24.80
2018-09-04T14:27:26.919Z,24.70
2018-09-04T14:32:30.676Z,24.80
2018-09-04T14:37:34.023Z,24.60
2018-09-04T14:42:37.490Z,24.60
2018-09-04T14:47:40.903Z,24.60
2018-09-04T14:52:44.302Z,24.70
2018-09-04T14:57:48.450Z,24.60
2018-09-04T15:02:51.871Z,24.70
2018-09-04T15:07:55.263Z,24.60
2018-09-04T15:12:58.673Z,24.50
2018-09-04T15:18:02.185Z,24.40
2018-09-04T15:23:06.065Z,24.30
2018-09-04T15:28:09.481Z,24.00
2018-09-04T15:33:13.089Z,24.00
2018-09-04T15:38:16.654Z,24.00
2018-09-04T15:43:20.249Z,24.00
2018-09-04T15:48:23.867Z,23.90
2018-09-04T15:53:27.437Z,24.00
2018-09-04T15:58:31.204Z,24.00
2018-09-04T16:03:34.635Z,24.00
2018-09-04T16:08:38.162Z,23.90
2018-09-04T16:13:41.437Z,23.70
2018-09-04T16:18:44.954Z,23.80
2018-09-04T16:23:48.499Z,23.80
2018-09-04T16:28:51.827Z,23.80
2018-09-04T16:33:55.383Z,23.60
2018-09-04T16:38:59.132Z,23.40
2018-09-04T16:44:03.074Z,23.00
2018-09-04T16:49:06.490Z,22.80
2018-09-04T16:54:09.923Z,22.70
2018-09-04T16:59:13.386Z,22.60
2018-09-04T17:04:17.382Z,22.60
2018-09-04T17:09:21.633Z,22.40
2018-09-04T17:14:25.030Z,22.20
2018-09-04T17:19:28.497Z,22.20
2018-09-04T17:24:32.003Z,22.10
2018-09-04T17:29:35.545Z,22.00
2018-09-04T17:34:39.053Z,22.00
2018-09-04T17:39:42.389Z,21.90
2018-09-04T17:44:45.734Z,21.90
2018-09-04T17:49:49.458Z,21.50
2018-09-04T17:54:53.049Z,21.30
2018-09-04T17:59:56.779Z,21.10
2018-09-04T18:05:00.181Z,21.00
2018-09-04T18:10:03.665Z,20.90
2018-09-04T18:15:07.474Z,20.80
2018-09-04T18:20:10.977Z,20.70
2018-09-04T18:25:14.328Z,20.70
2018-09-04T18:30:17.907Z,20.60
2018-09-04T18:35:21.333Z,20.50
2018-09-04T18:40:24.988Z,20.20
2018-09-04T18:45:47.642Z,20.10
2018-09-04T18:50:51.254Z,20.00
2018-09-04T18:55:54.619Z,19.90
2018-09-04T19:01:00.633Z,19.80
2018-09-04T19:06:04.451Z,19.60
2018-09-04T19:11:08.003Z,19.60
2018-09-04T19:16:11.872Z,19.60
2018-09-04T19:21:16.579Z,19.50
2018-09-04T19:26:20.217Z,19.40
2018-09-04T19:31:23.776Z,19.40
2018-09-04T19:36:27.372Z,19.40
2018-09-04T19:41:31.085Z,19.40
2018-09-04T19:46:34.925Z,19.30
2018-09-04T19:51:38.524Z,19.20
2018-09-04T19:56:42.317Z,19.20
2018-09-04T20:01:45.940Z,19.10
2018-09-04T20:06:49.372Z,19.00
2018-09-04T20:11:52.917Z,19.00
2018-09-04T20:16:56.557Z,18.90
2018-09-04T20:21:59.969Z,18.90
2018-09-04T20:27:03.673Z,18.80
2018-09-04T20:32:07.176Z,18.90
2018-09-04T20:37:10.928Z,18.70
2018-09-04T20:42:14.433Z,18.70
2018-09-04T20:47:17.842Z,18.60
2018-09-04T20:52:21.200Z,18.60
2018-09-04T20:57:27.615Z,18.70
2018-09-04T21:02:48.134Z,18.60
2018-09-04T21:08:12.567Z,18.60
2018-09-04T21:13:15.977Z,18.60
2018-09-04T21:18:19.422Z,18.50
2018-09-04T21:23:22.982Z,18.40
2018-09-04T21:28:26.441Z,18.30
2018-09-04T21:33:29.926Z,18.20
2018-09-04T21:38:33.511Z,18.20
2018-09-04T21:43:37.078Z,18.20
2018-09-04T21:48:40.618Z,18.00
2018-09-04T21:53:44.106Z,17.90
2018-09-04T21:58:47.472Z,17.90
2018-09-04T22:03:51.181Z,17.80
2018-09-04T22:08:54.823Z,17.70
2018-09-04T22:13:58.246Z,17.70
2018-09-04T22:19:02.304Z,17.60
2018-09-04T22:24:05.905Z,17.50
2018-09-04T22:29:09.429Z,17.50
2018-09-04T22:34:13.465Z,17.40
2018-09-04T22:39:17.016Z,17.30
2018-09-04T22:44:20.937Z,17.20
2018-09-04T22:49:24.367Z,17.20
2018-09-04T22:54:28.180Z,17.20
2018-09-04T22:59:31.753Z,17.20
2018-09-04T23:04:35.426Z,17.20
2018-09-04T23:09:38.803Z,17.10
2018-09-04T23:14:42.764Z,17.00
2018-09-04T23:19:46.287Z,16.90
2018-09-04T23:24:49.857Z,17.00
2018-09-04T23:29:53.440Z,16.90
2018-09-04T23:34:56.814Z,16.90
2018-09-04T23:40:00.417Z,16.90
2018-09-04T23:45:04.541Z,16.60
2018-09-04T23:50:07.967Z,16.50
2018-09-04T23:55:11.315Z,16.50
